sensor_id;sensor_type;location;lat;lon;timestamp;P1;durP1;ratioP1;P2;durP2;ratioP2
18001;SDS011;9126;48.160;17.130;2022-08-21T00:00:44;1.80;;;1.70;;
18001;SDS011;9126;48.160;17.130;2022-08-21T00:03:12;1.75;;;1.65;;
18001;SDS011;9126;48.160;17.130;2022-08-21T00:05:44;1.77;;;1.67;;
18001;SDS011;9126;48.160;17.130;2022-08-21T00:08:12;1.90;;;1.80;;
18001;SDS011;9126;48.160;17.130;2022-08-21T00:10:41;1.90;;;1.80;;
18001;SDS011;9126;48.160;17.130;2022-08-21T00:13:11;1.77;;;1.67;;
18001;SDS011;9126;48.160;17.130;2022-08-21T00:15:40;2.15;;;1.80;;
18001;SDS011;9126;48.160;17.130;2022-08-21T00:18:08;1.65;;;1.55;;
18001;SDS011;9126;48.160;17.130;2022-08-21T00:20:37;2.10;;;2.00;;
18001;SDS011;9126;48.160;17.130;2022-08-21T00:23:05;2.47;;;1.70;;
18001;SDS011;9126;48.160;17.130;2022-08-21T00:25:33;1.92;;;1.83;;
18001;SDS011;9126;48.160;17.130;2022-08-21T00:28:02;2.10;;;1.98;;
18001;SDS011;9126;48.160;17.130;2022-08-21T00:30:30;1.90;;;1.80;;
18001;SDS011;9126;48.160;17.130;2022-08-21T00:32:57;2.05;;;1.75;;
18001;SDS011;9126;48.160;17.130;2022-08-21T00:35:26;1.83;;;1.55;;
18001;SDS011;9126;48.160;17.130;2022-08-21T00:37:55;1.52;;;1.42;;
18001;SDS011;9126;48.160;17.130;2022-08-21T00:40:26;1.63;;;1.52;;
18001;SDS011;9126;48.160;17.130;2022-08-21T00:42:56;1.40;;;1.30;;
18001;SDS011;9126;48.160;17.130;2022-08-21T00:45:25;1.40;;;1.30;;
18001;SDS011;9126;48.160;17.130;2022-08-21T00:47:54;2.05;;;1.40;;
18001;SDS011;9126;48.160;17.130;2022-08-21T00:50:22;2.05;;;1.20;;
18001;SDS011;9126;48.160;17.130;2022-08-21T00:52:54;1.10;;;1.10;;
18001;SDS011;9126;48.160;17.130;2022-08-21T00:55:23;1.25;;;1.23;;
18001;SDS011;9126;48.160;17.130;2022-08-21T00:57:52;1.40;;;1.30;;
18001;SDS011;9126;48.160;17.130;2022-08-21T01:00:22;1.15;;;1.15;;
18001;SDS011;9126;48.160;17.130;2022-08-21T01:02:54;1.10;;;1.10;;
18001;SDS011;9126;48.160;17.130;2022-08-21T01:05:22;1.65;;;1.35;;
18001;SDS011;9126;48.160;17.130;2022-08-21T01:07:49;1.50;;;1.40;;
18001;SDS011;9126;48.160;17.130;2022-08-21T01:10:16;1.30;;;1.25;;
18001;SDS011;9126;48.160;17.130;2022-08-21T01:12:44;1.48;;;1.40;;
18001;SDS011;9126;48.160;17.130;2022-08-21T01:15:11;1.38;;;1.27;;
18001;SDS011;9126;48.160;17.130;2022-08-21T01:17:41;1.40;;;1.40;;
18001;SDS011;9126;48.160;17.130;2022-08-21T01:20:10;1.90;;;1.70;;
18001;SDS011;9126;48.160;17.130;2022-08-21T01:22:40;1.63;;;1.52;;
18001;SDS011;9126;48.160;17.130;2022-08-21T01:25:08;1.60;;;1.50;;
18001;SDS011;9126;48.160;17.130;2022-08-21T01:27:36;1.42;;;1.33;;
18001;SDS011;9126;48.160;17.130;2022-08-21T01:30:08;2.00;;;1.90;;
18001;SDS011;9126;48.160;17.130;2022-08-21T01:32:37;1.80;;;1.70;;
18001;SDS011;9126;48.160;17.130;2022-08-21T01:35:05;1.77;;;1.63;;
18001;SDS011;9126;48.160;17.130;2022-08-21T01:37:33;1.63;;;1.52;;
18001;SDS011;9126;48.160;17.130;2022-08-21T01:40:02;1.90;;;1.77;;
18001;SDS011;9126;48.160;17.130;2022-08-21T01:42:30;1.60;;;1.50;;
18001;SDS011;9126;48.160;17.130;2022-08-21T01:44:57;1.80;;;1.70;;
18001;SDS011;9126;48.160;17.130;2022-08-21T01:47:24;1.88;;;1.77;;
18001;SDS011;9126;48.160;17.130;2022-08-21T01:49:52;1.85;;;1.75;;
18001;SDS011;9126;48.160;17.130;2022-08-21T01:52:19;1.65;;;1.55;;
18001;SDS011;9126;48.160;17.130;2022-08-21T01:54:46;2.10;;;1.90;;
18001;SDS011;9126;48.160;17.130;2022-08-21T01:57:15;1.33;;;1.33;;
18001;SDS011;9126;48.160;17.130;2022-08-21T01:59:42;2.35;;;1.70;;
18001;SDS011;9126;48.160;17.130;2022-08-21T02:02:09;1.83;;;1.70;;
18001;SDS011;9126;48.160;17.130;2022-08-21T02:04:36;1.85;;;1.75;;
18001;SDS011;9126;48.160;17.130;2022-08-21T02:07:04;1.80;;;1.70;;
18001;SDS011;9126;48.160;17.130;2022-08-21T02:09:32;1.80;;;1.70;;
18001;SDS011;9126;48.160;17.130;2022-08-21T02:11:59;2.08;;;1.83;;
18001;SDS011;9126;48.160;17.130;2022-08-21T02:14:27;1.85;;;1.75;;
18001;SDS011;9126;48.160;17.130;2022-08-21T02:16:55;1.67;;;1.58;;
18001;SDS011;9126;48.160;17.130;2022-08-21T02:19:22;1.90;;;1.77;;
18001;SDS011;9126;48.160;17.130;2022-08-21T02:21:49;1.88;;;1.77;;
18001;SDS011;9126;48.160;17.130;2022-08-21T02:24:16;1.92;;;1.83;;
18001;SDS011;9126;48.160;17.130;2022-08-21T02:26:43;2.15;;;1.90;;
18001;SDS011;9126;48.160;17.130;2022-08-21T02:29:10;2.55;;;1.98;;
18001;SDS011;9126;48.160;17.130;2022-08-21T02:31:39;2.30;;;2.08;;
18001;SDS011;9126;48.160;17.130;2022-08-21T02:34:06;2.00;;;1.75;;
18001;SDS011;9126;48.160;17.130;2022-08-21T02:36:34;2.30;;;1.80;;
18001;SDS011;9126;48.160;17.130;2022-08-21T02:39:01;1.95;;;1.85;;
18001;SDS011;9126;48.160;17.130;2022-08-21T02:41:28;2.78;;;1.80;;
18001;SDS011;9126;48.160;17.130;2022-08-21T02:43:56;1.95;;;1.85;;
18001;SDS011;9126;48.160;17.130;2022-08-21T02:46:23;2.30;;;1.70;;
18001;SDS011;9126;48.160;17.130;2022-08-21T02:48:52;1.80;;;1.70;;
18001;SDS011;9126;48.160;17.130;2022-08-21T02:51:19;1.98;;;1.88;;
18001;SDS011;9126;48.160;17.130;2022-08-21T02:53:48;2.10;;;2.00;;
18001;SDS011;9126;48.160;17.130;2022-08-21T02:56:16;1.90;;;1.80;;
18001;SDS011;9126;48.160;17.130;2022-08-21T02:58:46;2.10;;;1.90;;
18001;SDS011;9126;48.160;17.130;2022-08-21T03:01:16;2.10;;;2.00;;
18001;SDS011;9126;48.160;17.130;2022-08-21T03:03:44;2.03;;;1.92;;
18001;SDS011;9126;48.160;17.130;2022-08-21T03:06:17;1.73;;;1.63;;
18001;SDS011;9126;48.160;17.130;2022-08-21T03:08:45;1.98;;;1.88;;
18001;SDS011;9126;48.160;17.130;2022-08-21T03:11:13;2.03;;;1.90;;
18001;SDS011;9126;48.160;17.130;2022-08-21T03:13:41;2.72;;;1.98;;
18001;SDS011;9126;48.160;17.130;2022-08-21T03:16:08;2.05;;;1.95;;
18001;SDS011;9126;48.160;17.130;2022-08-21T03:18:36;3.42;;;2.13;;
18001;SDS011;9126;48.160;17.130;2022-08-21T03:21:03;2.10;;;2.00;;
18001;SDS011;9126;48.160;17.130;2022-08-21T03:23:32;2.55;;;2.35;;
18001;SDS011;9126;48.160;17.130;2022-08-21T03:25:59;2.80;;;2.60;;
18001;SDS011;9126;48.160;17.130;2022-08-21T03:28:28;2.97;;;2.65;;
18001;SDS011;9126;48.160;17.130;2022-08-21T03:30:55;2.42;;;2.30;;
18001;SDS011;9126;48.160;17.130;2022-08-21T03:33:22;2.60;;;2.50;;
18001;SDS011;9126;48.160;17.130;2022-08-21T03:35:55;2.95;;;2.60;;
18001;SDS011;9126;48.160;17.130;2022-08-21T03:38:26;2.65;;;2.45;;
18001;SDS011;9126;48.160;17.130;2022-08-21T03:40:55;3.55;;;2.55;;
18001;SDS011;9126;48.160;17.130;2022-08-21T03:43:23;2.72;;;2.53;;
18001;SDS011;9126;48.160;17.130;2022-08-21T03:45:50;2.63;;;2.53;;
18001;SDS011;9126;48.160;17.130;2022-08-21T03:48:17;2.50;;;2.30;;
18001;SDS011;9126;48.160;17.130;2022-08-21T03:50:44;2.30;;;2.20;;
18001;SDS011;9126;48.160;17.130;2022-08-21T03:53:15;2.60;;;2.40;;
18001;SDS011;9126;48.160;17.130;2022-08-21T03:55:43;2.97;;;2.58;;
18001;SDS011;9126;48.160;17.130;2022-08-21T03:58:12;2.42;;;2.33;;
18001;SDS011;9126;48.160;17.130;2022-08-21T04:00:40;2.92;;;2.72;;
18001;SDS011;9126;48.160;17.130;2022-08-21T04:03:07;2.72;;;2.63;;
18001;SDS011;9126;48.160;17.130;2022-08-21T04:05:34;2.70;;;2.50;;
18001;SDS011;9126;48.160;17.130;2022-08-21T04:08:03;3.08;;;2.35;;
18001;SDS011;9126;48.160;17.130;2022-08-21T04:10:32;2.47;;;2.30;;
18001;SDS011;9126;48.160;17.130;2022-08-21T04:13:02;2.30;;;2.10;;
18001;SDS011;9126;48.160;17.130;2022-08-21T04:15:32;3.80;;;2.30;;
18001;SDS011;9126;48.160;17.130;2022-08-21T04:17:59;2.60;;;2.30;;
18001;SDS011;9126;48.160;17.130;2022-08-21T04:20:27;2.55;;;2.33;;
18001;SDS011;9126;48.160;17.130;2022-08-21T04:22:54;2.65;;;2.03;;
18001;SDS011;9126;48.160;17.130;2022-08-21T04:25:22;1.90;;;1.80;;
18001;SDS011;9126;48.160;17.130;2022-08-21T04:27:50;2.40;;;2.20;;
18001;SDS011;9126;48.160;17.130;2022-08-21T04:30:18;1.95;;;1.85;;
18001;SDS011;9126;48.160;17.130;2022-08-21T04:32:47;2.15;;;2.05;;
18001;SDS011;9126;48.160;17.130;2022-08-21T04:35:17;2.10;;;2.00;;
18001;SDS011;9126;48.160;17.130;2022-08-21T04:37:47;2.60;;;1.92;;
18001;SDS011;9126;48.160;17.130;2022-08-21T04:40:15;2.20;;;2.10;;
18001;SDS011;9126;48.160;17.130;2022-08-21T04:42:44;2.20;;;2.00;;
18001;SDS011;9126;48.160;17.130;2022-08-21T04:45:19;1.98;;;1.88;;
18001;SDS011;9126;48.160;17.130;2022-08-21T04:47:50;2.25;;;2.05;;
18001;SDS011;9126;48.160;17.130;2022-08-21T04:50:18;2.53;;;1.92;;
18001;SDS011;9126;48.160;17.130;2022-08-21T04:52:45;2.40;;;2.28;;
18001;SDS011;9126;48.160;17.130;2022-08-21T04:55:13;2.65;;;2.13;;
18001;SDS011;9126;48.160;17.130;2022-08-21T04:57:42;3.30;;;1.92;;
18001;SDS011;9126;48.160;17.130;2022-08-21T05:00:10;2.13;;;2.00;;
18001;SDS011;9126;48.160;17.130;2022-08-21T05:02:39;2.20;;;2.00;;
18001;SDS011;9126;48.160;17.130;2022-08-21T05:05:08;2.00;;;1.90;;
18001;SDS011;9126;48.160;17.130;2022-08-21T05:07:36;2.42;;;2.22;;
18001;SDS011;9126;48.160;17.130;2022-08-21T05:10:04;2.00;;;1.90;;
18001;SDS011;9126;48.160;17.130;2022-08-21T05:12:33;1.77;;;1.67;;
18001;SDS011;9126;48.160;17.130;2022-08-21T05:15:01;1.90;;;1.77;;
18001;SDS011;9126;48.160;17.130;2022-08-21T05:17:29;2.00;;;1.90;;
18001;SDS011;9126;48.160;17.130;2022-08-21T05:19:56;2.00;;;1.90;;
18001;SDS011;9126;48.160;17.130;2022-08-21T05:22:25;2.00;;;1.90;;
18001;SDS011;9126;48.160;17.130;2022-08-21T05:24:52;2.25;;;2.15;;
18001;SDS011;9126;48.160;17.130;2022-08-21T05:27:20;2.33;;;2.15;;
18001;SDS011;9126;48.160;17.130;2022-08-21T05:29:47;2.90;;;2.17;;
18001;SDS011;9126;48.160;17.130;2022-08-21T05:32:14;2.33;;;2.17;;
18001;SDS011;9126;48.160;17.130;2022-08-21T05:34:41;2.00;;;1.90;;
18001;SDS011;9126;48.160;17.130;2022-08-21T05:37:10;2.05;;;1.95;;
18001;SDS011;9126;48.160;17.130;2022-08-21T05:39:39;2.20;;;2.05;;
18001;SDS011;9126;48.160;17.130;2022-08-21T05:42:07;2.28;;;2.08;;
18001;SDS011;9126;48.160;17.130;2022-08-21T05:44:34;2.33;;;2.13;;
18001;SDS011;9126;48.160;17.130;2022-08-21T05:47:02;3.15;;;2.05;;
18001;SDS011;9126;48.160;17.130;2022-08-21T05:49:31;2.30;;;2.10;;
18001;SDS011;9126;48.160;17.130;2022-08-21T05:51:58;2.25;;;2.05;;
18001;SDS011;9126;48.160;17.130;2022-08-21T05:54:25;3.05;;;1.52;;
18001;SDS011;9126;48.160;17.130;2022-08-21T05:56:54;1.73;;;1.63;;
18001;SDS011;9126;48.160;17.130;2022-08-21T05:59:21;1.88;;;1.67;;
18001;SDS011;9126;48.160;17.130;2022-08-21T06:01:48;1.90;;;1.80;;
18001;SDS011;9126;48.160;17.130;2022-08-21T06:04:17;1.75;;;1.65;;
18001;SDS011;9126;48.160;17.130;2022-08-21T06:06:44;2.38;;;1.60;;
18001;SDS011;9126;48.160;17.130;2022-08-21T06:09:12;1.60;;;1.50;;
18001;SDS011;9126;48.160;17.130;2022-08-21T06:11:39;2.20;;;1.80;;
18001;SDS011;9126;48.160;17.130;2022-08-21T06:14:08;2.38;;;1.67;;
18001;SDS011;9126;48.160;17.130;2022-08-21T06:16:35;2.30;;;2.10;;
18001;SDS011;9126;48.160;17.130;2022-08-21T06:19:02;2.35;;;1.45;;
18001;SDS011;9126;48.160;17.130;2022-08-21T06:21:29;1.50;;;1.40;;
18001;SDS011;9126;48.160;17.130;2022-08-21T06:23:56;1.15;;;1.10;;
18001;SDS011;9126;48.160;17.130;2022-08-21T06:26:23;1.40;;;1.30;;
18001;SDS011;9126;48.160;17.130;2022-08-21T06:28:50;1.40;;;1.30;;
18001;SDS011;9126;48.160;17.130;2022-08-21T06:31:21;2.30;;;1.10;;
18001;SDS011;9126;48.160;17.130;2022-08-21T06:33:50;1.20;;;1.20;;
18001;SDS011;9126;48.160;17.130;2022-08-21T06:36:18;1.45;;;1.35;;
18001;SDS011;9126;48.160;17.130;2022-08-21T06:38:46;1.30;;;1.20;;
18001;SDS011;9126;48.160;17.130;2022-08-21T06:41:15;2.08;;;1.20;;
18001;SDS011;9126;48.160;17.130;2022-08-21T06:43:42;1.30;;;1.20;;
18001;SDS011;9126;48.160;17.130;2022-08-21T06:46:09;1.77;;;1.05;;
18001;SDS011;9126;48.160;17.130;2022-08-21T06:48:38;1.40;;;0.90;;
18001;SDS011;9126;48.160;17.130;2022-08-21T06:51:05;1.00;;;1.00;;
18001;SDS011;9126;48.160;17.130;2022-08-21T06:53:32;1.27;;;1.10;;
18001;SDS011;9126;48.160;17.130;2022-08-21T06:55:59;0.90;;;0.90;;
18001;SDS011;9126;48.160;17.130;2022-08-21T06:58:26;0.90;;;0.90;;
18001;SDS011;9126;48.160;17.130;2022-08-21T07:00:54;0.80;;;0.80;;
18001;SDS011;9126;48.160;17.130;2022-08-21T07:03:22;1.00;;;1.00;;
18001;SDS011;9126;48.160;17.130;2022-08-21T07:05:54;0.90;;;0.90;;
18001;SDS011;9126;48.160;17.130;2022-08-21T07:08:22;2.47;;;1.15;;
18001;SDS011;9126;48.160;17.130;2022-08-21T07:10:50;1.30;;;0.77;;
18001;SDS011;9126;48.160;17.130;2022-08-21T07:13:19;0.88;;;0.88;;
18001;SDS011;9126;48.160;17.130;2022-08-21T07:15:46;0.90;;;0.73;;
18001;SDS011;9126;48.160;17.130;2022-08-21T07:18:14;1.75;;;0.73;;
18001;SDS011;9126;48.160;17.130;2022-08-21T07:20:42;0.65;;;0.60;;
18001;SDS011;9126;48.160;17.130;2022-08-21T07:23:11;1.05;;;0.95;;
18001;SDS011;9126;48.160;17.130;2022-08-21T07:25:44;0.70;;;0.70;;
18001;SDS011;9126;48.160;17.130;2022-08-21T07:28:11;0.70;;;0.70;;
18001;SDS011;9126;48.160;17.130;2022-08-21T07:30:38;0.73;;;0.73;;
18001;SDS011;9126;48.160;17.130;2022-08-21T07:33:05;1.40;;;0.90;;
18001;SDS011;9126;48.160;17.130;2022-08-21T07:35:32;1.00;;;0.90;;
18001;SDS011;9126;48.160;17.130;2022-08-21T07:38:00;0.63;;;0.63;;
18001;SDS011;9126;48.160;17.130;2022-08-21T07:40:28;0.80;;;0.80;;
18001;SDS011;9126;48.160;17.130;2022-08-21T07:42:55;0.85;;;0.85;;
18001;SDS011;9126;48.160;17.130;2022-08-21T07:45:22;2.58;;;0.77;;
18001;SDS011;9126;48.160;17.130;2022-08-21T07:47:51;0.70;;;0.70;;
18001;SDS011;9126;48.160;17.130;2022-08-21T07:50:18;0.75;;;0.75;;
18001;SDS011;9126;48.160;17.130;2022-08-21T07:52:45;0.80;;;0.80;;
18001;SDS011;9126;48.160;17.130;2022-08-21T07:55:14;1.00;;;0.65;;
18001;SDS011;9126;48.160;17.130;2022-08-21T07:57:44;0.63;;;0.63;;
18001;SDS011;9126;48.160;17.130;2022-08-21T08:00:12;1.95;;;0.70;;
18001;SDS011;9126;48.160;17.130;2022-08-21T08:02:43;1.25;;;1.13;;
18001;SDS011;9126;48.160;17.130;2022-08-21T08:05:11;2.60;;;0.88;;
18001;SDS011;9126;48.160;17.130;2022-08-21T08:07:38;0.85;;;0.85;;
18001;SDS011;9126;48.160;17.130;2022-08-21T08:10:06;0.85;;;0.70;;
18001;SDS011;9126;48.160;17.130;2022-08-21T08:12:34;0.90;;;0.90;;
18001;SDS011;9126;48.160;17.130;2022-08-21T08:15:03;1.00;;;1.00;;
18001;SDS011;9126;48.160;17.130;2022-08-21T08:17:32;1.40;;;1.10;;
18001;SDS011;9126;48.160;17.130;2022-08-21T08:20:00;1.10;;;1.10;;
18001;SDS011;9126;48.160;17.130;2022-08-21T08:22:27;1.48;;;1.10;;
18001;SDS011;9126;48.160;17.130;2022-08-21T08:24:55;1.38;;;1.27;;
18001;SDS011;9126;48.160;17.130;2022-08-21T08:27:22;1.17;;;1.08;;
18001;SDS011;9126;48.160;17.130;2022-08-21T08:29:49;1.48;;;1.35;;
18001;SDS011;9126;48.160;17.130;2022-08-21T08:32:19;2.00;;;1.10;;
18001;SDS011;9126;48.160;17.130;2022-08-21T08:34:47;1.75;;;1.38;;
18001;SDS011;9126;48.160;17.130;2022-08-21T08:37:16;2.45;;;1.30;;
18001;SDS011;9126;48.160;17.130;2022-08-21T08:39:45;1.75;;;1.60;;
18001;SDS011;9126;48.160;17.130;2022-08-21T08:42:13;1.90;;;1.80;;
18001;SDS011;9126;48.160;17.130;2022-08-21T08:44:43;1.98;;;1.30;;
18001;SDS011;9126;48.160;17.130;2022-08-21T08:47:11;1.77;;;1.50;;
18001;SDS011;9126;48.160;17.130;2022-08-21T08:49:46;1.70;;;1.60;;
18001;SDS011;9126;48.160;17.130;2022-08-21T08:52:22;1.48;;;1.38;;
18001;SDS011;9126;48.160;17.130;2022-08-21T08:54:55;1.50;;;1.40;;
18001;SDS011;9126;48.160;17.130;2022-08-21T08:57:28;2.78;;;1.27;;
18001;SDS011;9126;48.160;17.130;2022-08-21T08:59:56;1.50;;;1.40;;
18001;SDS011;9126;48.160;17.130;2022-08-21T09:02:25;1.70;;;1.60;;
18001;SDS011;9126;48.160;17.130;2022-08-21T09:04:55;1.40;;;1.30;;
18001;SDS011;9126;48.160;17.130;2022-08-21T09:07:30;1.50;;;1.40;;
18001;SDS011;9126;48.160;17.130;2022-08-21T09:10:08;1.60;;;1.50;;
18001;SDS011;9126;48.160;17.130;2022-08-21T09:12:41;1.55;;;1.45;;
18001;SDS011;9126;48.160;17.130;2022-08-21T09:15:20;1.65;;;1.55;;
18001;SDS011;9126;48.160;17.130;2022-08-21T09:18:02;1.90;;;1.50;;
18001;SDS011;9126;48.160;17.130;2022-08-21T09:20:52;3.03;;;2.05;;
18001;SDS011;9126;48.160;17.130;2022-08-21T09:23:32;1.70;;;1.40;;
18001;SDS011;9126;48.160;17.130;2022-08-21T09:26:07;2.05;;;1.52;;
18001;SDS011;9126;48.160;17.130;2022-08-21T09:28:39;1.90;;;1.80;;
18001;SDS011;9126;48.160;17.130;2022-08-21T09:31:08;1.63;;;1.52;;
18001;SDS011;9126;48.160;17.130;2022-08-21T09:33:41;1.55;;;1.45;;
18001;SDS011;9126;48.160;17.130;2022-08-21T09:36:10;3.38;;;1.90;;
18001;SDS011;9126;48.160;17.130;2022-08-21T09:38:37;2.75;;;1.80;;
18001;SDS011;9126;48.160;17.130;2022-08-21T09:41:05;1.98;;;1.83;;
18001;SDS011;9126;48.160;17.130;2022-08-21T09:43:34;2.35;;;1.77;;
18001;SDS011;9126;48.160;17.130;2022-08-21T09:46:04;2.45;;;1.70;;
18001;SDS011;9126;48.160;17.130;2022-08-21T09:48:42;2.15;;;1.70;;
18001;SDS011;9126;48.160;17.130;2022-08-21T09:51:13;1.73;;;1.63;;
18001;SDS011;9126;48.160;17.130;2022-08-21T09:53:43;2.55;;;1.50;;
18001;SDS011;9126;48.160;17.130;2022-08-21T09:56:25;1.52;;;1.45;;
18001;SDS011;9126;48.160;17.130;2022-08-21T09:59:13;4.55;;;1.65;;
18001;SDS011;9126;48.160;17.130;2022-08-21T10:01:44;3.15;;;1.77;;
18001;SDS011;9126;48.160;17.130;2022-08-21T10:04:13;3.70;;;1.83;;
18001;SDS011;9126;48.160;17.130;2022-08-21T10:06:41;2.30;;;1.30;;
18001;SDS011;9126;48.160;17.130;2022-08-21T10:09:10;1.52;;;1.42;;
18001;SDS011;9126;48.160;17.130;2022-08-21T10:11:39;2.00;;;1.55;;
18001;SDS011;9126;48.160;17.130;2022-08-21T10:14:12;3.83;;;1.70;;
18001;SDS011;9126;48.160;17.130;2022-08-21T10:16:46;2.10;;;1.38;;
18001;SDS011;9126;48.160;17.130;2022-08-21T10:19:25;1.33;;;1.23;;
18001;SDS011;9126;48.160;17.130;2022-08-21T10:22:02;1.70;;;1.60;;
18001;SDS011;9126;48.160;17.130;2022-08-21T10:24:43;1.50;;;1.40;;
18001;SDS011;9126;48.160;17.130;2022-08-21T10:27:20;2.67;;;1.52;;
18001;SDS011;9126;48.160;17.130;2022-08-21T10:29:58;1.70;;;1.60;;
18001;SDS011;9126;48.160;17.130;2022-08-21T10:32:38;1.58;;;1.40;;
18001;SDS011;9126;48.160;17.130;2022-08-21T10:35:18;2.78;;;1.30;;
18001;SDS011;9126;48.160;17.130;2022-08-21T10:38:00;2.08;;;1.05;;
18001;SDS011;9126;48.160;17.130;2022-08-21T10:40:47;2.83;;;1.20;;
18001;SDS011;9126;48.160;17.130;2022-08-21T10:43:23;1.25;;;1.15;;
18001;SDS011;9126;48.160;17.130;2022-08-21T10:45:57;2.28;;;1.20;;
18001;SDS011;9126;48.160;17.130;2022-08-21T10:48:32;5.40;;;3.40;;
18001;SDS011;9126;48.160;17.130;2022-08-21T10:51:06;1.77;;;1.67;;
18001;SDS011;9126;48.160;17.130;2022-08-21T10:53:49;1.65;;;1.50;;
18001;SDS011;9126;48.160;17.130;2022-08-21T10:56:23;2.65;;;1.40;;
18001;SDS011;9126;48.160;17.130;2022-08-21T10:59:01;1.52;;;1.40;;
18001;SDS011;9126;48.160;17.130;2022-08-21T11:01:37;1.30;;;1.20;;
18001;SDS011;9126;48.160;17.130;2022-08-21T11:04:11;0.93;;;0.93;;
18001;SDS011;9126;48.160;17.130;2022-08-21T11:06:44;1.10;;;1.10;;
18001;SDS011;9126;48.160;17.130;2022-08-21T11:09:15;1.10;;;1.10;;
18001;SDS011;9126;48.160;17.130;2022-08-21T11:11:46;1.40;;;1.10;;
18001;SDS011;9126;48.160;17.130;2022-08-21T11:14:24;1.00;;;0.90;;
18001;SDS011;9126;48.160;17.130;2022-08-21T11:16:58;1.23;;;0.93;;
18001;SDS011;9126;48.160;17.130;2022-08-21T11:19:33;0.80;;;0.80;;
18001;SDS011;9126;48.160;17.130;2022-08-21T11:22:06;3.25;;;1.00;;
18001;SDS011;9126;48.160;17.130;2022-08-21T11:24:44;1.38;;;0.70;;
18001;SDS011;9126;48.160;17.130;2022-08-21T11:27:18;0.60;;;0.60;;
18001;SDS011;9126;48.160;17.130;2022-08-21T11:29:54;1.00;;;0.60;;
18001;SDS011;9126;48.160;17.130;2022-08-21T11:32:45;1.05;;;0.52;;
18001;SDS011;9126;48.160;17.130;2022-08-21T11:35:26;0.47;;;0.47;;
18001;SDS011;9126;48.160;17.130;2022-08-21T11:38:03;1.27;;;0.70;;
18001;SDS011;9126;48.160;17.130;2022-08-21T11:43:53;1.02;;;0.63;;
18001;SDS011;9126;48.160;17.130;2022-08-21T11:46:28;1.23;;;0.45;;
18001;SDS011;9126;48.160;17.130;2022-08-21T11:49:06;0.50;;;0.50;;
18001;SDS011;9126;48.160;17.130;2022-08-21T11:51:45;1.05;;;0.43;;
18001;SDS011;9126;48.160;17.130;2022-08-21T11:54:20;0.50;;;0.50;;
18001;SDS011;9126;48.160;17.130;2022-08-21T11:56:53;0.30;;;0.30;;
18001;SDS011;9126;48.160;17.130;2022-08-21T11:59:26;0.50;;;0.50;;
18001;SDS011;9126;48.160;17.130;2022-08-21T12:02:01;1.45;;;0.40;;
18001;SDS011;9126;48.160;17.130;2022-08-21T12:04:34;0.88;;;0.45;;
18001;SDS011;9126;48.160;17.130;2022-08-21T12:07:09;0.47;;;0.47;;
18001;SDS011;9126;48.160;17.130;2022-08-21T12:09:40;0.30;;;0.30;;
18001;SDS011;9126;48.160;17.130;2022-08-21T12:12:24;1.67;;;0.50;;
18001;SDS011;9126;48.160;17.130;2022-08-21T12:15:04;0.77;;;0.45;;
18001;SDS011;9126;48.160;17.130;2022-08-21T12:17:54;0.43;;;0.43;;
18001;SDS011;9126;48.160;17.130;2022-08-21T12:20:25;0.65;;;0.52;;
18001;SDS011;9126;48.160;17.130;2022-08-21T12:23:06;0.30;;;0.30;;
18001;SDS011;9126;48.160;17.130;2022-08-21T12:25:44;0.80;;;0.77;;
18001;SDS011;9126;48.160;17.130;2022-08-21T12:28:20;0.50;;;0.50;;
18001;SDS011;9126;48.160;17.130;2022-08-21T12:30:49;0.40;;;0.40;;
18001;SDS011;9126;48.160;17.130;2022-08-21T12:33:21;1.42;;;0.52;;
18001;SDS011;9126;48.160;17.130;2022-08-21T12:35:52;0.40;;;0.40;;
18001;SDS011;9126;48.160;17.130;2022-08-21T12:38:28;0.40;;;0.40;;
18001;SDS011;9126;48.160;17.130;2022-08-21T12:40:59;0.30;;;0.30;;
18001;SDS011;9126;48.160;17.130;2022-08-21T12:43:33;0.35;;;0.35;;
18001;SDS011;9126;48.160;17.130;2022-08-21T12:46:04;1.83;;;0.50;;
18001;SDS011;9126;48.160;17.130;2022-08-21T12:48:31;2.38;;;0.65;;
18001;SDS011;9126;48.160;17.130;2022-08-21T12:51:06;2.33;;;0.60;;
18001;SDS011;9126;48.160;17.130;2022-08-21T12:53:40;0.55;;;0.50;;
18001;SDS011;9126;48.160;17.130;2022-08-21T12:56:12;0.60;;;0.57;;
18001;SDS011;9126;48.160;17.130;2022-08-21T12:58:44;1.25;;;0.73;;
18001;SDS011;9126;48.160;17.130;2022-08-21T13:01:13;2.45;;;0.60;;
18001;SDS011;9126;48.160;17.130;2022-08-21T13:03:47;0.55;;;0.52;;
18001;SDS011;9126;48.160;17.130;2022-08-21T13:06:16;1.15;;;0.40;;
18001;SDS011;9126;48.160;17.130;2022-08-21T13:08:46;2.17;;;0.90;;
18001;SDS011;9126;48.160;17.130;2022-08-21T13:11:18;1.25;;;0.90;;
18001;SDS011;9126;48.160;17.130;2022-08-21T13:13:49;0.55;;;0.45;;
18001;SDS011;9126;48.160;17.130;2022-08-21T13:16:19;6.95;;;0.80;;
18001;SDS011;9126;48.160;17.130;2022-08-21T13:18:53;0.85;;;0.70;;
18001;SDS011;9126;48.160;17.130;2022-08-21T13:21:26;1.77;;;0.77;;
18001;SDS011;9126;48.160;17.130;2022-08-21T13:24:06;0.70;;;0.60;;
18001;SDS011;9126;48.160;17.130;2022-08-21T13:26:36;0.60;;;0.40;;
18001;SDS011;9126;48.160;17.130;2022-08-21T13:29:07;0.57;;;0.57;;
18001;SDS011;9126;48.160;17.130;2022-08-21T13:31:36;0.75;;;0.60;;
18001;SDS011;9126;48.160;17.130;2022-08-21T13:34:08;0.82;;;0.60;;
18001;SDS011;9126;48.160;17.130;2022-08-21T13:36:39;0.50;;;0.50;;
18001;SDS011;9126;48.160;17.130;2022-08-21T13:39:09;0.38;;;0.32;;
18001;SDS011;9126;48.160;17.130;2022-08-21T13:41:40;0.63;;;0.40;;
18001;SDS011;9126;48.160;17.130;2022-08-21T13:44:16;0.60;;;0.60;;
18001;SDS011;9126;48.160;17.130;2022-08-21T13:46:45;1.30;;;0.70;;
18001;SDS011;9126;48.160;17.130;2022-08-21T13:49:14;0.60;;;0.60;;
18001;SDS011;9126;48.160;17.130;2022-08-21T13:51:43;1.52;;;0.70;;
18001;SDS011;9126;48.160;17.130;2022-08-21T13:54:15;1.05;;;0.70;;
18001;SDS011;9126;48.160;17.130;2022-08-21T13:56:48;2.25;;;0.57;;
18001;SDS011;9126;48.160;17.130;2022-08-21T13:59:24;1.38;;;0.70;;
18001;SDS011;9126;48.160;17.130;2022-08-21T14:01:54;2.95;;;1.25;;
18001;SDS011;9126;48.160;17.130;2022-08-21T14:04:26;0.68;;;0.68;;
18001;SDS011;9126;48.160;17.130;2022-08-21T14:07:01;1.75;;;0.85;;
18001;SDS011;9126;48.160;17.130;2022-08-21T14:09:41;0.93;;;0.80;;
18001;SDS011;9126;48.160;17.130;2022-08-21T14:12:11;1.45;;;0.95;;
18001;SDS011;9126;48.160;17.130;2022-08-21T14:14:42;5.97;;;1.00;;
18001;SDS011;9126;48.160;17.130;2022-08-21T14:17:10;1.15;;;1.00;;
18001;SDS011;9126;48.160;17.130;2022-08-21T14:19:41;1.23;;;1.05;;
18001;SDS011;9126;48.160;17.130;2022-08-21T14:24:59;1.85;;;1.10;;
18001;SDS011;9126;48.160;17.130;2022-08-21T14:27:30;1.95;;;0.80;;
18001;SDS011;9126;48.160;17.130;2022-08-21T14:30:00;1.35;;;1.05;;
18001;SDS011;9126;48.160;17.130;2022-08-21T14:32:36;3.50;;;1.00;;
18001;SDS011;9126;48.160;17.130;2022-08-21T14:35:06;1.10;;;1.00;;
18001;SDS011;9126;48.160;17.130;2022-08-21T14:37:34;1.30;;;1.00;;
18001;SDS011;9126;48.160;17.130;2022-08-21T14:40:02;2.13;;;0.98;;
18001;SDS011;9126;48.160;17.130;2022-08-21T14:42:30;0.90;;;0.90;;
18001;SDS011;9126;48.160;17.130;2022-08-21T14:44:59;1.00;;;1.00;;
18001;SDS011;9126;48.160;17.130;2022-08-21T14:47:40;0.90;;;0.90;;
18001;SDS011;9126;48.160;17.130;2022-08-21T14:50:08;3.15;;;1.10;;
18001;SDS011;9126;48.160;17.130;2022-08-21T14:52:36;1.58;;;1.02;;
18001;SDS011;9126;48.160;17.130;2022-08-21T14:55:04;1.10;;;1.00;;
18001;SDS011;9126;48.160;17.130;2022-08-21T14:57:32;1.17;;;1.00;;
18001;SDS011;9126;48.160;17.130;2022-08-21T15:00:02;2.63;;;1.30;;
18001;SDS011;9126;48.160;17.130;2022-08-21T15:02:30;1.88;;;1.10;;
18001;SDS011;9126;48.160;17.130;2022-08-21T15:04:57;3.15;;;1.33;;
18001;SDS011;9126;48.160;17.130;2022-08-21T15:07:24;2.45;;;1.10;;
18001;SDS011;9126;48.160;17.130;2022-08-21T15:09:51;3.78;;;1.00;;
18001;SDS011;9126;48.160;17.130;2022-08-21T15:12:19;2.58;;;0.98;;